Terminal Aerodrome Forecast
Issued by NWS Memphis, TN

Home | Current Version | Previous Version | Text Only | Print | Product List | Glossary On
Versions: 1 2 3 4 5 6 7 8 9 10 11 12 13 14 15 16 17 18 19 20 21 22 23
000
FTUS44 KMEG 271720
TAFJBR
TAF
KJBR 271720Z 2718/2818 16008KT P6SM VCSH SCT050 BKN150
     FM272300 19003KT P6SM SCT050 BKN250
     FM280200 17003KT P6SM FEW050 SCT250
     FM280900 VRB03KT 2SM BR BKN004
      TEMPO 2811/2813 1/2SM FG VV002
     FM281500 15005KT 6SM BR BKN010 BKN250=

USA.gov is the U.S. government's official web portal to all federal, state and local government web resources and services.